sensor_id;sensor_type;location;lat;lon;timestamp;pressure;altitude;pressure_sealevel;temperature;humidity
54329;BME280;40710;51.120;13.136;2023-01-29T00:00:13;100588.25;;;2.44;51.20
54329;BME280;40710;51.120;13.136;2023-01-29T00:02:39;100573.56;;;2.40;50.77
54329;BME280;40710;51.120;13.136;2023-01-29T00:05:04;100572.56;;;3.09;49.91
54329;BME280;40710;51.120;13.136;2023-01-29T00:07:30;100570.91;;;2.88;50.86
54329;BME280;40710;51.120;13.136;2023-01-29T00:09:54;100567.34;;;3.18;49.78
54329;BME280;40710;51.120;13.136;2023-01-29T00:12:19;100562.31;;;2.44;50.92
54329;BME280;40710;51.120;13.136;2023-01-29T00:14:43;100569.22;;;2.56;50.50
54329;BME280;40710;51.120;13.136;2023-01-29T00:17:08;100564.88;;;2.74;51.10
54329;BME280;40710;51.120;13.136;2023-01-29T00:19:34;100578.69;;;1.88;52.81
54329;BME280;40710;51.120;13.136;2023-01-29T00:21:59;100577.84;;;2.06;52.88
54329;BME280;40710;51.120;13.136;2023-01-29T00:24:24;100576.94;;;1.79;53.53
54329;BME280;40710;51.120;13.136;2023-01-29T00:26:48;100565.75;;;2.33;53.18
54329;BME280;40710;51.120;13.136;2023-01-29T00:29:13;100558.81;;;2.65;52.46
54329;BME280;40710;51.120;13.136;2023-01-29T00:31:38;100564.91;;;1.98;53.37
54329;BME280;40710;51.120;13.136;2023-01-29T00:34:02;100564.03;;;2.02;53.34
54329;BME280;40710;51.120;13.136;2023-01-29T00:36:27;100557.09;;;1.94;53.69
54329;BME280;40710;51.120;13.136;2023-01-29T00:38:55;100551.00;;;1.75;53.84
54329;BME280;40710;51.120;13.136;2023-01-29T00:41:21;100549.34;;;2.21;53.10
54329;BME280;40710;51.120;13.136;2023-01-29T00:44:05;100552.81;;;2.03;53.29
54329;BME280;40710;51.120;13.136;2023-01-29T00:46:49;100539.84;;;2.37;52.89
54329;BME280;40710;51.120;13.136;2023-01-29T00:49:13;100547.59;;;1.89;52.46
54329;BME280;40710;51.120;13.136;2023-01-29T00:51:38;100557.09;;;1.89;52.54
54329;BME280;40710;51.120;13.136;2023-01-29T00:54:03;100558.81;;;1.79;53.37
54329;BME280;40710;51.120;13.136;2023-01-29T00:56:30;100554.50;;;2.68;52.43
54329;BME280;40710;51.120;13.136;2023-01-29T00:58:55;100553.66;;;2.07;52.45
54329;BME280;40710;51.120;13.136;2023-01-29T01:01:20;100564.91;;;2.07;52.01
54329;BME280;40710;51.120;13.136;2023-01-29T01:04:05;100564.88;;;2.14;52.72
54329;BME280;40710;51.120;13.136;2023-01-29T01:06:29;100580.28;;;1.43;53.87
54329;BME280;40710;51.120;13.136;2023-01-29T01:08:54;100576.94;;;1.78;53.44
54329;BME280;40710;51.120;13.136;2023-01-29T01:11:37;100575.16;;;1.54;54.01
54329;BME280;40710;51.120;13.136;2023-01-29T01:14:02;100562.31;;;2.18;52.75
54329;BME280;40710;51.120;13.136;2023-01-29T01:16:26;100566.47;;;1.39;53.62
54329;BME280;40710;51.120;13.136;2023-01-29T01:18:51;100549.34;;;2.32;52.80
54329;BME280;40710;51.120;13.136;2023-01-29T01:21:15;100573.34;;;1.32;53.97
54329;BME280;40710;51.120;13.136;2023-01-29T01:23:40;100572.56;;;1.61;53.43
54329;BME280;40710;51.120;13.136;2023-01-29T01:26:08;100558.81;;;1.90;53.50
54329;BME280;40710;51.120;13.136;2023-01-29T01:28:32;100553.66;;;1.92;52.65
54329;BME280;40710;51.120;13.136;2023-01-29T01:31:07;100561.13;;;1.07;54.33
54329;BME280;40710;51.120;13.136;2023-01-29T01:33:31;100550.16;;;1.91;53.71
54329;BME280;40710;51.120;13.136;2023-01-29T01:36:00;100556.91;;;1.24;55.22
54329;BME280;40710;51.120;13.136;2023-01-29T01:38:25;100550.84;;;1.22;53.80
54329;BME280;40710;51.120;13.136;2023-01-29T01:40:49;100544.06;;;1.61;54.97
54329;BME280;40710;51.120;13.136;2023-01-29T01:43:14;100535.47;;;1.68;54.14
54329;BME280;40710;51.120;13.136;2023-01-29T01:45:38;100538.75;;;1.15;55.48
54329;BME280;40710;51.120;13.136;2023-01-29T01:48:14;100543.91;;;1.09;55.69
54329;BME280;40710;51.120;13.136;2023-01-29T01:53:26;100540.66;;;1.78;53.86
54329;BME280;40710;51.120;13.136;2023-01-29T01:55:58;100540.69;;;1.90;53.31
54329;BME280;40710;51.120;13.136;2023-01-29T01:58:57;100546.28;;;0.75;55.70
54329;BME280;40710;51.120;13.136;2023-01-29T02:01:25;100538.72;;;1.12;55.35
54329;BME280;40710;51.120;13.136;2023-01-29T02:03:58;100527.63;;;1.50;54.30
54329;BME280;40710;51.120;13.136;2023-01-29T02:06:43;100514.72;;;1.75;53.71
54329;BME280;40710;51.120;13.136;2023-01-29T02:09:32;100511.31;;;2.00;52.74
54329;BME280;40710;51.120;13.136;2023-01-29T02:12:21;100540.25;;;0.73;56.72
54329;BME280;40710;51.120;13.136;2023-01-29T02:14:46;100525.00;;;1.28;54.59
54329;BME280;40710;51.120;13.136;2023-01-29T02:17:16;100519.00;;;1.39;54.14
54329;BME280;40710;51.120;13.136;2023-01-29T02:22:28;100521.09;;;0.43;55.65
54329;BME280;40710;51.120;13.136;2023-01-29T02:33:37;100513.75;;;1.31;55.02
54329;BME280;40710;51.120;13.136;2023-01-29T02:38:56;100523.28;;;1.40;54.97
54329;BME280;40710;51.120;13.136;2023-01-29T02:41:45;100542.81;;;0.70;55.73
54329;BME280;40710;51.120;13.136;2023-01-29T02:47:02;100539.56;;;1.02;55.36
54329;BME280;40710;51.120;13.136;2023-01-29T02:49:55;100536.81;;;0.71;56.76
54329;BME280;40710;51.120;13.136;2023-01-29T02:52:33;100543.47;;;0.38;55.48
54329;BME280;40710;51.120;13.136;2023-01-29T02:55:05;100555.19;;;-0.03;57.44
54329;BME280;40710;51.120;13.136;2023-01-29T02:57:38;100551.44;;;0.66;56.56
54329;BME280;40710;51.120;13.136;2023-01-29T03:00:15;100555.66;;;0.56;56.72
54329;BME280;40710;51.120;13.136;2023-01-29T03:02:55;100543.00;;;0.99;56.19
54329;BME280;40710;51.120;13.136;2023-01-29T03:05:34;100537.72;;;0.78;55.40
54329;BME280;40710;51.120;13.136;2023-01-29T03:08:10;100530.88;;;0.93;55.40
54329;BME280;40710;51.120;13.136;2023-01-29T03:10:53;100540.44;;;1.04;56.06
54329;BME280;40710;51.120;13.136;2023-01-29T03:16:19;100533.44;;;0.90;55.55
54329;BME280;40710;51.120;13.136;2023-01-29T03:19:11;100545.53;;;0.91;55.72
54329;BME280;40710;51.120;13.136;2023-01-29T03:21:42;100542.75;;;0.57;55.81
54329;BME280;40710;51.120;13.136;2023-01-29T03:24:18;100557.00;;;0.06;57.81
54329;BME280;40710;51.120;13.136;2023-01-29T03:27:07;100543.47;;;0.38;57.85
54329;BME280;40710;51.120;13.136;2023-01-29T03:29:54;100536.84;;;0.80;55.83
54329;BME280;40710;51.120;13.136;2023-01-29T03:32:38;100529.88;;;0.65;57.35
54329;BME280;40710;51.120;13.136;2023-01-29T03:35:05;100522.00;;;0.50;57.21
54329;BME280;40710;51.120;13.136;2023-01-29T03:37:42;100513.34;;;0.45;56.42
54329;BME280;40710;51.120;13.136;2023-01-29T03:40:09;100513.50;;;0.71;56.78
54329;BME280;40710;51.120;13.136;2023-01-29T03:42:48;100525.38;;;0.40;57.73
54329;BME280;40710;51.120;13.136;2023-01-29T03:45:30;100522.72;;;0.29;58.44
54329;BME280;40710;51.120;13.136;2023-01-29T03:48:10;100529.16;;;-0.24;58.76
54329;BME280;40710;51.120;13.136;2023-01-29T03:51:00;100528.19;;;0.75;57.14
54329;BME280;40710;51.120;13.136;2023-01-29T03:53:51;100525.59;;;0.70;56.76
54329;BME280;40710;51.120;13.136;2023-01-29T03:56:30;100528.25;;;0.86;56.66
54329;BME280;40710;51.120;13.136;2023-01-29T03:59:19;100520.34;;;0.63;56.03
54329;BME280;40710;51.120;13.136;2023-01-29T04:01:56;100514.34;;;0.70;56.38
54329;BME280;40710;51.120;13.136;2023-01-29T04:04:26;100515.25;;;0.72;56.88
54329;BME280;40710;51.120;13.136;2023-01-29T04:07:00;100514.91;;;0.20;57.40
54329;BME280;40710;51.120;13.136;2023-01-29T04:09:35;100508.91;;;0.24;58.31
54329;BME280;40710;51.120;13.136;2023-01-29T04:12:06;100507.25;;;0.32;57.87
54329;BME280;40710;51.120;13.136;2023-01-29T04:14:32;100513.13;;;0.12;58.45
54329;BME280;40710;51.120;13.136;2023-01-29T04:17:02;100503.66;;;0.14;53.76
54329;BME280;40710;51.120;13.136;2023-01-29T04:19:32;100511.63;;;0.42;57.11
54329;BME280;40710;51.120;13.136;2023-01-29T04:22:06;100511.75;;;-0.42;58.23
54329;BME280;40710;51.120;13.136;2023-01-29T04:24:37;100511.44;;;0.16;58.54
54329;BME280;40710;51.120;13.136;2023-01-29T04:27:26;100503.06;;;0.51;57.46
54329;BME280;40710;51.120;13.136;2023-01-29T04:33:01;100510.25;;;1.07;59.12
54329;BME280;40710;51.120;13.136;2023-01-29T04:39:14;100488.47;;;0.70;58.08
54329;BME280;40710;51.120;13.136;2023-01-29T04:41:53;100471.41;;;1.10;56.71
54329;BME280;40710;51.120;13.136;2023-01-29T04:44:42;100471.38;;;1.03;56.50
54329;BME280;40710;51.120;13.136;2023-01-29T04:47:36;100469.69;;;1.02;56.66
54329;BME280;40710;51.120;13.136;2023-01-29T04:50:14;100463.66;;;1.07;55.38
54329;BME280;40710;51.120;13.136;2023-01-29T04:52:52;100467.41;;;0.08;58.91
54329;BME280;40710;51.120;13.136;2023-01-29T04:55:25;100460.84;;;0.61;57.42
54329;BME280;40710;51.120;13.136;2023-01-29T04:57:56;100446.22;;;0.62;55.68
54329;BME280;40710;51.120;13.136;2023-01-29T05:00:29;100441.63;;;0.17;54.55
54329;BME280;40710;51.120;13.136;2023-01-29T05:02:59;100393.94;;;5.11;47.15
54329;BME280;40710;51.120;13.136;2023-01-29T05:05:24;100450.50;;;0.60;54.82
54329;BME280;40710;51.120;13.136;2023-01-29T05:07:49;100449.56;;;0.42;56.92
54329;BME280;40710;51.120;13.136;2023-01-29T05:10:18;100458.19;;;0.47;56.73
54329;BME280;40710;51.120;13.136;2023-01-29T05:12:50;100454.06;;;0.83;56.39
54329;BME280;40710;51.120;13.136;2023-01-29T05:15:24;100452.97;;;0.33;57.99
54329;BME280;40710;51.120;13.136;2023-01-29T05:17:49;100451.31;;;0.49;56.84
54329;BME280;40710;51.120;13.136;2023-01-29T05:20:17;100457.06;;;0.08;58.12
54329;BME280;40710;51.120;13.136;2023-01-29T05:22:43;100449.59;;;0.51;57.06
54329;BME280;40710;51.120;13.136;2023-01-29T05:25:27;100444.38;;;0.41;56.98
54329;BME280;40710;51.120;13.136;2023-01-29T05:27:52;100433.47;;;1.11;56.08
54329;BME280;40710;51.120;13.136;2023-01-29T05:30:39;100431.66;;;0.88;56.74
54329;BME280;40710;51.120;13.136;2023-01-29T05:33:12;100422.13;;;0.80;56.46
54329;BME280;40710;51.120;13.136;2023-01-29T05:35:38;100413.59;;;1.11;55.54
54329;BME280;40710;51.120;13.136;2023-01-29T05:38:02;100426.81;;;-0.10;58.55
54329;BME280;40710;51.120;13.136;2023-01-29T05:40:27;100415.47;;;-0.27;59.03
54329;BME280;40710;51.120;13.136;2023-01-29T05:42:51;100434.41;;;-0.30;59.74
54329;BME280;40710;51.120;13.136;2023-01-29T05:45:16;100431.44;;;0.39;58.20
54329;BME280;40710;51.120;13.136;2023-01-29T05:47:41;100440.03;;;0.38;58.24
54329;BME280;40710;51.120;13.136;2023-01-29T05:50:07;100458.34;;;-0.46;59.83
54329;BME280;40710;51.120;13.136;2023-01-29T05:52:32;100440.19;;;0.66;58.27
54329;BME280;40710;51.120;13.136;2023-01-29T05:54:56;100431.72;;;1.08;55.46
54329;BME280;40710;51.120;13.136;2023-01-29T05:57:21;100428.81;;;0.34;55.32
54329;BME280;40710;51.120;13.136;2023-01-29T05:59:45;100440.25;;;0.78;56.56
54329;BME280;40710;51.120;13.136;2023-01-29T06:02:10;100454.84;;;0.70;57.66
54329;BME280;40710;51.120;13.136;2023-01-29T06:04:34;100448.09;;;-0.37;58.74
54329;BME280;40710;51.120;13.136;2023-01-29T06:06:59;100447.69;;;0.18;58.16
54329;BME280;40710;51.120;13.136;2023-01-29T06:09:26;100449.81;;;1.01;56.19
54329;BME280;40710;51.120;13.136;2023-01-29T06:11:51;100451.91;;;0.08;58.08
54329;BME280;40710;51.120;13.136;2023-01-29T06:14:15;100451.44;;;0.80;55.95
54329;BME280;40710;51.120;13.136;2023-01-29T06:16:40;100456.91;;;-0.16;57.86
54329;BME280;40710;51.120;13.136;2023-01-29T06:19:04;100464.31;;;0.60;58.58
54329;BME280;40710;51.120;13.136;2023-01-29T06:21:29;100456.41;;;0.40;57.58
54329;BME280;40710;51.120;13.136;2023-01-29T06:23:53;100456.63;;;0.74;57.29
54329;BME280;40710;51.120;13.136;2023-01-29T06:26:18;100466.25;;;-0.31;58.00
54329;BME280;40710;51.120;13.136;2023-01-29T06:28:43;100463.38;;;0.46;58.46
54329;BME280;40710;51.120;13.136;2023-01-29T06:31:09;100462.69;;;0.85;56.25
54329;BME280;40710;51.120;13.136;2023-01-29T06:33:34;100468.47;;;0.32;58.02
54329;BME280;40710;51.120;13.136;2023-01-29T06:36:00;100461.06;;;1.15;56.91
54329;BME280;40710;51.120;13.136;2023-01-29T06:38:26;100458.44;;;1.10;56.11
54329;BME280;40710;51.120;13.136;2023-01-29T06:40:52;100465.34;;;1.02;55.30
54329;BME280;40710;51.120;13.136;2023-01-29T06:43:16;100450.81;;;1.83;54.14
54329;BME280;40710;51.120;13.136;2023-01-29T06:45:52;100469.75;;;1.34;54.34
54329;BME280;40710;51.120;13.136;2023-01-29T06:48:18;100462.84;;;2.36;52.86
54329;BME280;40710;51.120;13.136;2023-01-29T06:50:42;100474.13;;;2.04;52.68
54329;BME280;40710;51.120;13.136;2023-01-29T06:53:07;100504.16;;;0.98;55.89
54329;BME280;40710;51.120;13.136;2023-01-29T06:55:31;100499.06;;;1.21;55.63
54329;BME280;40710;51.120;13.136;2023-01-29T06:57:56;100524.09;;;1.22;55.86
54329;BME280;40710;51.120;13.136;2023-01-29T07:00:20;100515.75;;;0.18;56.35
54329;BME280;40710;51.120;13.136;2023-01-29T07:02:48;100537.94;;;1.33;55.49
54329;BME280;40710;51.120;13.136;2023-01-29T07:05:12;100525.59;;;0.72;55.77
54329;BME280;40710;51.120;13.136;2023-01-29T07:07:37;100538.97;;;0.15;57.20
54329;BME280;40710;51.120;13.136;2023-01-29T07:10:01;100541.84;;;0.52;57.33
54329;BME280;40710;51.120;13.136;2023-01-29T07:12:26;100536.63;;;0.45;57.72
54329;BME280;40710;51.120;13.136;2023-01-29T07:14:51;100536.88;;;0.86;57.02
54329;BME280;40710;51.120;13.136;2023-01-29T07:17:15;100529.06;;;0.72;57.20
54329;BME280;40710;51.120;13.136;2023-01-29T07:19:40;100524.06;;;1.11;56.72
54329;BME280;40710;51.120;13.136;2023-01-29T07:22:04;100528.47;;;1.40;56.63
54329;BME280;40710;51.120;13.136;2023-01-29T07:24:29;100535.88;;;0.61;57.99
54329;BME280;40710;51.120;13.136;2023-01-29T07:26:53;100535.59;;;0.20;58.72
54329;BME280;40710;51.120;13.136;2023-01-29T07:29:18;100541.63;;;0.22;59.59
54329;BME280;40710;51.120;13.136;2023-01-29T07:31:42;100522.13;;;0.65;60.37
54329;BME280;40710;51.120;13.136;2023-01-29T07:34:07;100524.28;;;0.10;58.58
54329;BME280;40710;51.120;13.136;2023-01-29T07:36:31;100520.41;;;0.73;58.51
54329;BME280;40710;51.120;13.136;2023-01-29T07:38:56;100538.94;;;0.09;60.12
54329;BME280;40710;51.120;13.136;2023-01-29T07:41:20;100513.84;;;1.49;56.47
54329;BME280;40710;51.120;13.136;2023-01-29T07:43:46;100533.31;;;0.67;57.53
54329;BME280;40710;51.120;13.136;2023-01-29T07:46:10;100525.13;;;0.04;58.76
54329;BME280;40710;51.120;13.136;2023-01-29T07:48:35;100522.59;;;0.13;59.42
54329;BME280;40710;51.120;13.136;2023-01-29T07:51:00;100520.28;;;0.46;58.39
54329;BME280;40710;51.120;13.136;2023-01-29T07:53:25;100506.09;;;1.82;56.27
54329;BME280;40710;51.120;13.136;2023-01-29T07:55:50;100513.00;;;1.70;56.15
54329;BME280;40710;51.120;13.136;2023-01-29T07:58:15;100493.00;;;1.14;56.76
54329;BME280;40710;51.120;13.136;2023-01-29T08:00:39;100491.38;;;1.41;56.20
54329;BME280;40710;51.120;13.136;2023-01-29T08:03:12;100500.03;;;1.60;55.81
54329;BME280;40710;51.120;13.136;2023-01-29T08:05:37;100483.66;;;2.02;54.51
54329;BME280;40710;51.120;13.136;2023-01-29T08:08:02;100487.03;;;1.41;56.84
54329;BME280;40710;51.120;13.136;2023-01-29T08:10:27;100480.81;;;0.88;58.24
54329;BME280;40710;51.120;13.136;2023-01-29T08:12:59;100460.25;;;1.25;55.97
54329;BME280;40710;51.120;13.136;2023-01-29T08:15:25;100469.75;;;1.36;56.55
54329;BME280;40710;51.120;13.136;2023-01-29T08:17:50;100452.53;;;2.13;54.75
54329;BME280;40710;51.120;13.136;2023-01-29T08:20:15;100455.06;;;1.18;57.00
54329;BME280;40710;51.120;13.136;2023-01-29T08:22:40;100460.25;;;1.27;56.38
54329;BME280;40710;51.120;13.136;2023-01-29T08:25:04;100466.13;;;0.81;57.21
54329;BME280;40710;51.120;13.136;2023-01-29T08:27:29;100458.56;;;1.55;57.54
54329;BME280;40710;51.120;13.136;2023-01-29T08:29:53;100476.06;;;0.13;59.04
54329;BME280;40710;51.120;13.136;2023-01-29T08:32:18;100466.72;;;0.32;59.01
54329;BME280;40710;51.120;13.136;2023-01-29T08:34:42;100452.50;;;1.41;56.23
54329;BME280;40710;51.120;13.136;2023-01-29T08:37:07;100445.56;;;1.21;58.02
54329;BME280;40710;51.120;13.136;2023-01-29T08:39:31;100435.25;;;1.58;55.51
54329;BME280;40710;51.120;13.136;2023-01-29T08:41:56;100463.56;;;0.89;57.83
54329;BME280;40710;51.120;13.136;2023-01-29T08:44:20;100463.63;;;1.03;57.56
54329;BME280;40710;51.120;13.136;2023-01-29T08:46:45;100462.84;;;1.38;57.51
54329;BME280;40710;51.120;13.136;2023-01-29T08:49:10;100458.56;;;2.12;56.21
54329;BME280;40710;51.120;13.136;2023-01-29T08:51:34;100480.03;;;1.02;56.25
54329;BME280;40710;51.120;13.136;2023-01-29T08:53:59;100495.41;;;0.71;57.47
54329;BME280;40710;51.120;13.136;2023-01-29T08:56:23;100472.31;;;1.14;56.99
54329;BME280;40710;51.120;13.136;2023-01-29T08:58:48;100460.28;;;2.22;55.84
54329;BME280;40710;51.120;13.136;2023-01-29T09:01:13;100463.75;;;1.44;55.92
54329;BME280;40710;51.120;13.136;2023-01-29T09:03:38;100453.41;;;1.97;56.44
54329;BME280;40710;51.120;13.136;2023-01-29T09:06:04;100447.34;;;1.62;55.90
54329;BME280;40710;51.120;13.136;2023-01-29T09:08:29;100455.09;;;1.30;57.31
54329;BME280;40710;51.120;13.136;2023-01-29T09:10:53;100465.50;;;1.75;56.70
54329;BME280;40710;51.120;13.136;2023-01-29T09:13:18;100485.25;;;1.14;57.97
54329;BME280;40710;51.120;13.136;2023-01-29T09:15:42;100460.84;;;3.21;52.81
54329;BME280;40710;51.120;13.136;2023-01-29T09:18:07;100470.59;;;1.25;56.88
54329;BME280;40710;51.120;13.136;2023-01-29T09:20:31;100457.69;;;2.25;55.85
54329;BME280;40710;51.120;13.136;2023-01-29T09:22:56;100456.53;;;3.14;54.68
54329;BME280;40710;51.120;13.136;2023-01-29T09:25:22;100461.13;;;2.38;54.16
54329;BME280;40710;51.120;13.136;2023-01-29T09:27:46;100468.09;;;1.87;56.02
54329;BME280;40710;51.120;13.136;2023-01-29T09:30:11;100461.16;;;1.55;56.88
54329;BME280;40710;51.120;13.136;2023-01-29T09:32:36;100452.56;;;1.93;56.34
54329;BME280;40710;51.120;13.136;2023-01-29T09:35:00;100458.59;;;1.70;56.09
54329;BME280;40710;51.120;13.136;2023-01-29T09:37:25;100457.66;;;2.41;56.10
54329;BME280;40710;51.120;13.136;2023-01-29T09:39:49;100465.53;;;1.82;56.32
54329;BME280;40710;51.120;13.136;2023-01-29T09:42:17;100453.31;;;1.20;57.77
54329;BME280;40710;51.120;13.136;2023-01-29T09:47:26;100426.63;;;1.75;56.38
54329;BME280;40710;51.120;13.136;2023-01-29T09:50:04;100422.97;;;2.77;55.50
54329;BME280;40710;51.120;13.136;2023-01-29T09:52:35;100420.56;;;1.71;54.79
54329;BME280;40710;51.120;13.136;2023-01-29T09:56:00;100450.56;;;0.77;58.81
54329;BME280;40710;51.120;13.136;2023-01-29T09:58:24;100414.38;;;2.57;56.49
54329;BME280;40710;51.120;13.136;2023-01-29T10:12:31;100430.81;;;2.57;55.56
54329;BME280;40710;51.120;13.136;2023-01-29T10:17:53;100436.00;;;2.57;55.53
54329;BME280;40710;51.120;13.136;2023-01-29T10:23:20;100438.69;;;2.17;56.44
54329;BME280;40710;51.120;13.136;2023-01-29T10:25:47;100423.19;;;1.74;57.55
54329;BME280;40710;51.120;13.136;2023-01-29T10:28:24;100411.06;;;2.05;56.47
54329;BME280;40710;51.120;13.136;2023-01-29T10:30:58;100389.28;;;3.90;52.63
54329;BME280;40710;51.120;13.136;2023-01-29T10:33:38;100405.88;;;1.75;56.73
54329;BME280;40710;51.120;13.136;2023-01-29T10:36:10;100398.00;;;2.35;55.84
54329;BME280;40710;51.120;13.136;2023-01-29T10:38:45;100401.53;;;2.20;54.33
54329;BME280;40710;51.120;13.136;2023-01-29T10:41:43;100399.78;;;2.19;57.43
54329;BME280;40710;51.120;13.136;2023-01-29T10:47:20;100365.34;;;3.54;53.23
54329;BME280;40710;51.120;13.136;2023-01-29T10:55:44;100361.97;;;3.43;53.56
54329;BME280;40710;51.120;13.136;2023-01-29T11:00:44;100343.56;;;3.66;54.25
54329;BME280;40710;51.120;13.136;2023-01-29T11:03:18;100335.97;;;3.45;52.61
54329;BME280;40710;51.120;13.136;2023-01-29T11:08:27;100336.31;;;4.01;52.46
54329;BME280;40710;51.120;13.136;2023-01-29T11:11:15;100328.56;;;2.89;55.46
54329;BME280;40710;51.120;13.136;2023-01-29T11:16:13;100311.81;;;3.35;54.26
54329;BME280;40710;51.120;13.136;2023-01-29T11:18:52;100316.66;;;2.54;56.08
54329;BME280;40710;51.120;13.136;2023-01-29T11:21:17;100317.31;;;2.89;54.51
54329;BME280;40710;51.120;13.136;2023-01-29T11:23:42;100323.63;;;2.46;57.18
54329;BME280;40710;51.120;13.136;2023-01-29T11:26:11;100315.34;;;3.25;55.16
54329;BME280;40710;51.120;13.136;2023-01-29T11:28:37;100301.75;;;2.86;55.17
54329;BME280;40710;51.120;13.136;2023-01-29T11:31:02;100296.81;;;3.65;54.78
54329;BME280;40710;51.120;13.136;2023-01-29T11:33:27;100295.66;;;3.92;54.24
54329;BME280;40710;51.120;13.136;2023-01-29T11:35:52;100305.78;;;3.30;54.92
54329;BME280;40710;51.120;13.136;2023-01-29T11:38:27;100298.78;;;3.36;53.87
54329;BME280;40710;51.120;13.136;2023-01-29T11:41:05;100294.31;;;2.25;56.32
54329;BME280;40710;51.120;13.136;2023-01-29T11:43:31;100280.69;;;3.24;54.84
54329;BME280;40710;51.120;13.136;2023-01-29T11:46:10;100279.00;;;3.25;53.60
54329;BME280;40710;51.120;13.136;2023-01-29T11:48:42;100289.91;;;2.44;57.35
54329;BME280;40710;51.120;13.136;2023-01-29T11:51:19;100276.03;;;3.62;54.86
54329;BME280;40710;51.120;13.136;2023-01-29T11:53:53;100280.28;;;3.72;52.79
54329;BME280;40710;51.120;13.136;2023-01-29T11:56:37;100276.06;;;3.60;53.41
54329;BME280;40710;51.120;13.136;2023-01-29T11:59:03;100283.41;;;3.10;54.95
54329;BME280;40710;51.120;13.136;2023-01-29T12:01:33;100278.69;;;4.33;52.94
54329;BME280;40710;51.120;13.136;2023-01-29T12:04:00;100285.00;;;4.12;52.79
54329;BME280;40710;51.120;13.136;2023-01-29T12:06:41;100285.25;;;2.94;54.26
54329;BME280;40710;51.120;13.136;2023-01-29T12:09:16;100270.41;;;3.10;55.00
54329;BME280;40710;51.120;13.136;2023-01-29T12:11:41;100260.34;;;3.71;54.26
54329;BME280;40710;51.120;13.136;2023-01-29T12:14:26;100258.72;;;2.51;56.14
54329;BME280;40710;51.120;13.136;2023-01-29T12:16:58;100212.53;;;4.49;50.51
54329;BME280;40710;51.120;13.136;2023-01-29T12:19:34;100208.09;;;5.59;49.32
54329;BME280;40710;51.120;13.136;2023-01-29T12:22:22;100241.50;;;3.49;54.25
54329;BME280;40710;51.120;13.136;2023-01-29T12:24:56;100221.66;;;4.19;54.16
54329;BME280;40710;51.120;13.136;2023-01-29T12:33:13;100200.31;;;3.91;53.02
54329;BME280;40710;51.120;13.136;2023-01-29T12:35:52;100199.16;;;4.74;51.29
54329;BME280;40710;51.120;13.136;2023-01-29T12:38:20;100192.69;;;4.44;52.07
54329;BME280;40710;51.120;13.136;2023-01-29T12:40:50;100173.69;;;6.25;48.88
54329;BME280;40710;51.120;13.136;2023-01-29T12:43:37;100185.88;;;4.91;50.78
54329;BME280;40710;51.120;13.136;2023-01-29T12:46:12;100186.94;;;4.20;51.85
54329;BME280;40710;51.120;13.136;2023-01-29T12:48:42;100174.06;;;4.70;51.47
54329;BME280;40710;51.120;13.136;2023-01-29T12:51:15;100167.41;;;4.50;51.62
54329;BME280;40710;51.120;13.136;2023-01-29T12:56:32;100175.06;;;5.14;51.62
54329;BME280;40710;51.120;13.136;2023-01-29T12:59:00;100157.47;;;5.24;51.23
54329;BME280;40710;51.120;13.136;2023-01-29T13:01:42;100162.03;;;5.59;49.60
54329;BME280;40710;51.120;13.136;2023-01-29T13:07:03;100144.88;;;6.32;48.72
54329;BME280;40710;51.120;13.136;2023-01-29T13:09:33;100145.66;;;5.95;49.18
54329;BME280;40710;51.120;13.136;2023-01-29T13:12:13;100139.44;;;6.02;49.46
54329;BME280;40710;51.120;13.136;2023-01-29T13:14:47;100154.19;;;4.63;51.66
54329;BME280;40710;51.120;13.136;2023-01-29T13:17:25;100123.84;;;6.36;49.05
54329;BME280;40710;51.120;13.136;2023-01-29T13:19:57;100129.03;;;4.63;51.45
54329;BME280;40710;51.120;13.136;2023-01-29T13:22:27;100128.09;;;4.67;51.19
54329;BME280;40710;51.120;13.136;2023-01-29T13:24:55;100103.44;;;6.16;48.84
54329;BME280;40710;51.120;13.136;2023-01-29T13:27:27;100132.16;;;5.32;50.54
54329;BME280;40710;51.120;13.136;2023-01-29T13:29:53;100132.50;;;6.01;49.26
54329;BME280;40710;51.120;13.136;2023-01-29T13:32:30;100129.25;;;6.30;49.09
54329;BME280;40710;51.120;13.136;2023-01-29T13:35:12;100145.16;;;5.77;49.32
54329;BME280;40710;51.120;13.136;2023-01-29T13:37:48;100140.44;;;5.96;50.84
54329;BME280;40710;51.120;13.136;2023-01-29T13:40:28;100130.81;;;6.00;49.47
54329;BME280;40710;51.120;13.136;2023-01-29T13:42:55;100130.03;;;5.51;49.52
54329;BME280;40710;51.120;13.136;2023-01-29T13:45:43;100120.22;;;5.64;49.67
54329;BME280;40710;51.120;13.136;2023-01-29T13:48:20;100138.28;;;4.80;52.14
54329;BME280;40710;51.120;13.136;2023-01-29T13:50:47;100139.31;;;5.21;51.75
54329;BME280;40710;51.120;13.136;2023-01-29T13:53:23;100141.53;;;4.41;52.36
54329;BME280;40710;51.120;13.136;2023-01-29T13:55:48;100128.50;;;4.92;53.16
54329;BME280;40710;51.120;13.136;2023-01-29T14:01:06;100124.50;;;4.74;52.64
54329;BME280;40710;51.120;13.136;2023-01-29T14:03:44;100121.34;;;4.54;51.96
54329;BME280;40710;51.120;13.136;2023-01-29T14:06:34;100115.09;;;4.66;52.65
54329;BME280;40710;51.120;13.136;2023-01-29T14:08:59;100117.41;;;4.30;53.51
54329;BME280;40710;51.120;13.136;2023-01-29T14:11:33;100113.47;;;4.03;53.71
54329;BME280;40710;51.120;13.136;2023-01-29T14:13:59;100105.13;;;5.36;51.20
54329;BME280;40710;51.120;13.136;2023-01-29T14:16:32;100135.63;;;2.86;56.35
54329;BME280;40710;51.120;13.136;2023-01-29T14:19:00;100150.50;;;2.67;57.06
54329;BME280;40710;51.120;13.136;2023-01-29T14:21:32;100117.47;;;3.65;53.21
54329;BME280;40710;51.120;13.136;2023-01-29T14:24:08;100119.19;;;3.63;53.71
54329;BME280;40710;51.120;13.136;2023-01-29T14:31:57;100139.41;;;3.39;55.56